createdAt,value
2022-10-17T00:13:11.075Z,16.8
2022-10-17T00:42:31.543Z,16.8
2022-10-17T01:11:35.365Z,16.6
2022-10-17T01:40:49.766Z,15.9
2022-10-17T02:09:59.249Z,15.3
2022-10-17T02:39:14.943Z,15.2
2022-10-17T03:08:34.773Z,14.6
2022-10-17T03:37:41.376Z,14.2
2022-10-17T04:06:47.835Z,14.3
2022-10-17T04:35:41.798Z,14
2022-10-17T05:04:59.880Z,13.8
2022-10-17T05:34:22.074Z,14.1
2022-10-17T06:03:45.374Z,14.1
2022-10-17T06:33:02.728Z,14.2
2022-10-17T07:02:20.190Z,14.5
2022-10-17T07:31:46.751Z,15.1
2022-10-17T08:01:16.484Z,15.5
2022-10-17T08:30:12.676Z,16
2022-10-17T08:59:41.704Z,16.8
2022-10-17T09:29:10.855Z,18
2022-10-17T09:58:38.287Z,18.5
2022-10-17T10:28:01.936Z,19.1
2022-10-17T10:57:17.780Z,21.5
2022-10-17T11:26:43.498Z,23.7
2022-10-17T11:56:01.765Z,27.7
2022-10-17T12:25:27.958Z,25.4
2022-10-17T12:55:00.472Z,24.5
2022-10-17T13:23:35.986Z,25.3
2022-10-17T13:52:52.061Z,24.7
2022-10-17T14:22:14.806Z,25
2022-10-17T14:51:22.351Z,24.8
2022-10-17T15:20:46.120Z,24.4
2022-10-17T15:50:08.033Z,23.9
2022-10-17T16:18:57.447Z,23.3
2022-10-17T16:48:04.956Z,21.8
2022-10-17T17:17:30.719Z,20.6
2022-10-17T17:46:02.547Z,19.8
2022-10-17T18:15:25.870Z,18.9
2022-10-17T18:44:40.497Z,18.2
2022-10-17T19:13:53.648Z,17.7
2022-10-17T19:43:04.904Z,18
2022-10-17T20:12:29.162Z,18.1
2022-10-17T20:41:31.596Z,18
2022-10-17T21:10:54.981Z,18.1
2022-10-17T21:40:19.679Z,18.2
2022-10-17T22:09:40.395Z,18.3
2022-10-17T22:39:05.921Z,18.3
2022-10-17T23:08:31.664Z,18.1
2022-10-17T23:37:50.081Z,18.1
